Time;durP1;ratioP1;P1;durP2;ratioP2;P2;SDS_P1;SDS_P2;PMS_P1;PMS_P2;Temp;Humidity;BMP_temperature;BMP_pressure;BME280_temperature;BME280_humidity;BME280_pressure;Samples;Min_cycle;Max_cycle;Signal;HPM_P1;HPM_P2
2023/01/18 08:34:29;;;;;;;11.73;4.03;;;0.30;99.90;;;;;;4944026;23;20302;-71
2023/01/18 08:36:56;;;;;;;7.17;3.97;;;0.40;99.90;;;;;;4954379;29;20207;-71
2023/01/18 08:39:23;;;;;;;18.57;5.27;;;0.50;99.90;;;;;;4954651;29;20271;-71
2023/01/18 08:41:49;;;;;;;15.77;5.83;;;0.40;99.90;;;;;;4956724;28;20235;-71
2023/01/18 08:44:17;;;;;;;15.57;7.80;;;0.50;99.90;;;;;;4958689;29;20218;-71
2023/01/18 08:46:44;;;;;;;13.67;5.30;;;0.50;99.90;;;;;;4958293;29;20211;-70
2023/01/18 08:49:11;;;;;;;11.07;5.13;;;0.60;99.90;;;;;;4958453;29;20671;-70
2023/01/18 08:51:39;;;;;;;11.73;4.57;;;0.60;99.90;;;;;;4958313;29;20224;-69
2023/01/18 08:54:06;;;;;;;7.33;4.57;;;0.60;99.90;;;;;;4958532;29;20212;-70
2023/01/18 08:56:33;;;;;;;6.47;3.87;;;0.70;99.90;;;;;;4947136;28;20208;-71
2023/01/18 08:59:01;;;;;;;7.57;4.30;;;0.70;99.90;;;;;;4953109;29;20208;-74
2023/01/18 09:01:28;;;;;;;11.90;5.63;;;0.80;99.90;;;;;;4956187;29;20228;-72
2023/01/18 09:03:56;;;;;;;9.83;5.20;;;1.00;99.90;;;;;;4939401;29;20213;-72
2023/01/18 09:06:23;;;;;;;7.87;5.00;;;1.20;99.90;;;;;;4938731;29;20213;-68
2023/01/18 09:08:51;;;;;;;9.27;4.97;;;1.30;99.90;;;;;;4939068;29;20679;-69
2023/01/18 09:11:18;;;;;;;8.23;4.03;;;1.30;99.90;;;;;;4939088;29;20233;-70
2023/01/18 09:13:45;;;;;;;10.47;4.80;;;1.20;99.90;;;;;;4942183;29;20231;-70
2023/01/18 09:16:13;;;;;;;8.47;4.50;;;1.20;99.90;;;;;;4948699;29;20220;-71
2023/01/18 09:18:39;;;;;;;8.97;4.73;;;1.30;99.90;;;;;;4938923;29;20220;-70
2023/01/18 09:21:07;;;;;;;11.13;5.33;;;1.30;99.90;;;;;;4938539;29;20319;-71
2023/01/18 09:23:35;;;;;;;8.57;4.83;;;1.30;99.90;;;;;;4939081;29;20209;-71
2023/01/18 09:26:05;;;;;;;7.47;4.47;;;1.40;99.90;;;;;;4938305;29;20205;-72
2023/01/18 09:28:32;;;;;;;8.23;5.17;;;1.60;99.90;;;;;;4939049;29;20296;-70
2023/01/18 09:31:01;;;;;;;10.80;5.00;;;1.70;99.90;;;;;;4938426;29;20723;-69
2023/01/18 09:33:28;;;;;;;8.10;4.90;;;1.50;99.90;;;;;;4938368;29;20236;-69
2023/01/18 09:35:56;;;;;;;5.93;3.67;;;1.60;99.90;;;;;;4938471;29;20220;-69
2023/01/18 09:38:23;;;;;;;8.80;4.37;;;1.60;99.90;;;;;;4938709;29;20217;-70
2023/01/18 09:40:52;;;;;;;7.60;3.70;;;1.50;99.90;;;;;;4938638;29;20233;-69
2023/01/18 09:43:28;;;;;;;4.87;2.53;;;1.50;99.90;;;;;;4938293;29;20690;-69
2023/01/18 09:45:55;;;;;;;8.50;4.07;;;1.40;99.90;;;;;;4939292;29;20668;-69
2023/01/18 09:48:30;;;;;;;7.23;4.00;;;1.30;99.90;;;;;;4944137;29;20267;-70
2023/01/18 09:51:01;;;;;;;8.63;4.37;;;1.30;99.90;;;;;;4950667;29;20219;-69
2023/01/18 09:53:44;;;;;;;8.03;4.30;;;1.30;99.90;;;;;;4949189;28;20236;-70
2023/01/18 09:56:17;;;;;;;10.97;4.70;;;1.30;99.90;;;;;;4938472;29;20213;-71
2023/01/18 09:58:57;;;;;;;7.70;4.20;;;1.30;99.90;;;;;;4938446;29;20674;-69
2023/01/18 10:01:27;;;;;;;7.03;4.10;;;1.30;99.90;;;;;;4937866;29;20313;-69
2023/01/18 10:03:58;;;;;;;7.67;3.97;;;1.30;99.90;;;;;;4938045;29;20687;-69
2023/01/18 10:06:28;;;;;;;7.50;4.23;;;1.40;99.90;;;;;;4942538;29;20676;-69
2023/01/18 10:09:00;;;;;;;13.07;3.73;;;1.50;99.90;;;;;;4939979;29;20212;-70
2023/01/18 10:11:42;;;;;;;7.63;3.70;;;1.50;99.90;;;;;;4938281;29;20229;-72
2023/01/18 10:14:18;;;;;;;11.37;4.00;;;1.60;99.90;;;;;;4938227;29;20723;-69
2023/01/18 10:16:52;;;;;;;5.73;3.63;;;1.70;99.90;;;;;;4938378;29;20672;-69
2023/01/18 10:19:24;;;;;;;8.43;3.97;;;1.80;99.90;;;;;;4937651;29;20216;-69
2023/01/18 10:21:57;;;;;;;13.63;3.70;;;1.80;99.90;;;;;;4937087;29;20680;-70
2023/01/18 10:24:30;;;;;;;6.70;3.33;;;1.90;99.90;;;;;;4937606;29;20217;-69
2023/01/18 10:27:12;;;;;;;7.20;3.40;;;2.00;99.90;;;;;;4937352;29;20537;-68
2023/01/18 10:29:55;;;;;;;8.70;3.57;;;2.00;99.90;;;;;;4937637;29;20664;-68
2023/01/18 10:32:26;;;;;;;5.50;3.37;;;2.10;99.90;;;;;;4937604;29;20209;-69
2023/01/18 10:34:54;;;;;;;4.30;2.67;;;2.30;99.90;;;;;;4937503;29;20217;-69
2023/01/18 10:37:30;;;;;;;5.40;3.00;;;2.30;99.90;;;;;;4937721;29;20212;-69
2023/01/18 10:40:00;;;;;;;6.73;3.63;;;2.40;99.90;;;;;;4937404;29;20235;-68
2023/01/18 10:42:34;;;;;;;5.50;2.93;;;2.60;99.90;;;;;;4937479;29;20296;-69
2023/01/18 10:45:02;;;;;;;3.67;2.37;;;2.60;99.90;;;;;;4937632;29;20209;-69
2023/01/18 10:47:28;;;;;;;9.00;3.27;;;2.60;99.90;;;;;;4937270;29;20300;-68
2023/01/18 10:49:59;;;;;;;6.23;2.93;;;2.70;99.90;;;;;;4937103;29;20212;-69
2023/01/18 10:52:28;;;;;;;5.33;2.57;;;2.70;99.90;;;;;;4937141;29;20217;-69
2023/01/18 10:54:58;;;;;;;6.80;2.73;;;2.70;99.90;;;;;;4937155;29;20213;-69
2023/01/18 10:57:29;;;;;;;4.30;2.10;;;2.70;99.90;;;;;;4937102;29;20212;-69
2023/01/18 10:59:57;;;;;;;2.27;1.77;;;2.80;99.90;;;;;;4936918;29;20211;-69
2023/01/18 11:02:30;;;;;;;4.77;2.27;;;2.90;99.90;;;;;;4936635;29;20715;-69
2023/01/18 11:05:05;;;;;;;5.10;2.50;;;2.90;99.90;;;;;;4935894;29;20224;-69
2023/01/18 11:07:32;;;;;;;5.70;2.47;;;3.00;99.90;;;;;;4936801;29;20213;-69
2023/01/18 11:10:05;;;;;;;5.40;2.33;;;3.10;99.90;;;;;;4936904;29;20205;-70
2023/01/18 11:12:35;;;;;;;9.77;2.77;;;3.10;99.90;;;;;;4936602;29;20691;-69
2023/01/18 11:15:25;;;;;;;3.90;2.00;;;3.10;99.90;;;;;;4936680;29;20240;-69
2023/01/18 11:18:10;;;;;;;8.43;2.93;;;3.30;99.90;;;;;;4936766;29;20208;-69
2023/01/18 11:20:46;;;;;;;4.93;2.70;;;3.30;99.90;;;;;;4936513;29;20256;-69
2023/01/18 11:23:17;;;;;;;8.37;2.73;;;3.30;99.90;;;;;;4936574;29;20212;-69
2023/01/18 11:25:54;;;;;;;5.70;1.77;;;3.40;99.90;;;;;;4936324;29;20215;-69
2023/01/18 11:28:23;;;;;;;4.03;2.33;;;3.40;99.90;;;;;;4936249;29;20216;-69
2023/01/18 11:30:54;;;;;;;4.23;2.10;;;3.40;99.90;;;;;;4936567;29;20229;-69
2023/01/18 11:33:25;;;;;;;4.83;1.90;;;3.40;99.90;;;;;;4936441;29;20240;-69
2023/01/18 11:35:55;;;;;;;6.10;2.23;;;3.30;99.90;;;;;;4936458;29;20213;-69
2023/01/18 11:38:27;;;;;;;4.13;1.77;;;3.40;99.90;;;;;;4936283;29;20672;-69
2023/01/18 11:41:06;;;;;;;4.03;2.07;;;3.50;99.90;;;;;;4936216;29;20233;-69
2023/01/18 11:43:36;;;;;;;6.97;1.77;;;3.50;99.90;;;;;;4936396;29;20220;-70
2023/01/18 11:46:13;;;;;;;6.77;2.17;;;3.50;99.90;;;;;;4936179;29;20213;-69
2023/01/18 11:48:48;;;;;;;3.50;2.10;;;3.60;99.90;;;;;;4936071;29;20204;-69
2023/01/18 11:51:22;;;;;;;3.27;1.87;;;3.70;99.90;;;;;;4935787;29;20696;-69
2023/01/18 11:53:57;;;;;;;5.93;2.10;;;3.80;99.90;;;;;;4935988;29;20237;-68
2023/01/18 11:56:32;;;;;;;4.60;2.10;;;3.70;99.90;;;;;;4935820;29;20215;-69
2023/01/18 11:59:01;;;;;;;5.30;2.07;;;3.70;99.90;;;;;;4935797;29;20674;-69
2023/01/18 12:01:56;;;;;;;2.57;1.67;;;3.80;99.90;;;;;;4934597;29;20631;-68
2023/01/18 12:04:33;;;;;;;4.43;2.03;;;3.90;99.90;;;;;;4934683;29;20209;-68
2023/01/18 12:07:15;;;;;;;3.37;1.70;;;4.00;99.90;;;;;;4935560;29;20209;-69
2023/01/18 12:09:49;;;;;;;5.07;1.83;;;4.00;99.90;;;;;;4935987;29;20212;-69
2023/01/18 12:12:29;;;;;;;2.90;1.47;;;4.10;99.90;;;;;;4942937;29;20212;-69
2023/01/18 12:15:13;;;;;;;3.10;1.60;;;4.10;99.90;;;;;;4937483;28;20250;-69
2023/01/18 12:18:01;;;;;;;2.27;1.60;;;4.00;99.90;;;;;;4935101;29;20209;-69
2023/01/18 12:20:34;;;;;;;5.10;1.63;;;4.10;99.90;;;;;;4937592;29;20243;-69
2023/01/18 12:23:21;;;;;;;2.70;1.40;;;4.20;99.90;;;;;;4935160;29;20678;-69
2023/01/18 12:26:12;;;;;;;3.37;1.60;;;4.40;99.90;;;;;;4935349;29;20216;-69
2023/01/18 12:28:57;;;;;;;3.80;1.83;;;4.50;99.90;;;;;;4934956;29;20219;-68
2023/01/18 12:31:34;;;;;;;7.33;1.70;;;4.50;99.90;;;;;;4935426;29;20250;-68
2023/01/18 12:34:09;;;;;;;1.83;1.30;;;4.50;99.90;;;;;;4934959;29;20244;-69
2023/01/18 12:36:51;;;;;;;3.13;1.53;;;4.60;99.90;;;;;;4934987;29;20255;-69
2023/01/18 12:39:32;;;;;;;3.17;1.43;;;4.60;99.90;;;;;;4935347;29;20268;-68
2023/01/18 12:42:04;;;;;;;5.90;2.27;;;4.70;99.90;;;;;;4935080;29;20258;-68
2023/01/18 12:44:56;;;;;;;1.97;1.07;;;4.70;99.90;;;;;;4935232;29;20217;-69
2023/01/18 12:47:35;;;;;;;5.27;1.70;;;4.50;99.90;;;;;;4935282;29;20208;-69
2023/01/18 12:50:21;;;;;;;6.13;1.70;;;4.50;99.90;;;;;;4942348;29;20216;-69
2023/01/18 12:52:53;;;;;;;2.00;1.13;;;4.40;99.90;;;;;;4938546;29;20583;-68
2023/01/18 12:55:24;;;;;;;6.60;1.80;;;4.30;99.90;;;;;;4936708;29;20215;-69
2023/01/18 12:57:54;;;;;;;5.20;1.50;;;4.30;99.90;;;;;;4940377;29;20673;-69
2023/01/18 13:00:27;;;;;;;4.87;1.87;;;4.40;99.90;;;;;;4934851;29;20232;-69
2023/01/18 13:02:56;;;;;;;6.93;2.53;;;4.30;99.90;;;;;;4937404;29;20208;-68
2023/01/18 13:05:33;;;;;;;3.30;1.70;;;4.30;99.90;;;;;;4936415;29;20265;-69
2023/01/18 13:08:07;;;;;;;4.07;1.60;;;4.30;99.90;;;;;;4941618;29;20579;-69
2023/01/18 13:10:36;;;;;;;6.17;1.80;;;4.30;99.90;;;;;;4936761;29;20231;-68
2023/01/18 13:13:05;;;;;;;4.77;1.70;;;4.30;99.90;;;;;;4934911;29;20209;-69
2023/01/18 13:15:39;;;;;;;4.97;1.70;;;4.20;99.90;;;;;;4936244;29;20556;-69
2023/01/18 13:18:14;;;;;;;2.70;1.60;;;4.20;99.90;;;;;;4937060;29;20206;-69
2023/01/18 13:20:54;;;;;;;5.93;2.00;;;4.20;99.90;;;;;;4938480;29;20236;-69
2023/01/18 13:23:34;;;;;;;2.80;1.63;;;4.20;99.90;;;;;;4934596;29;20556;-69
2023/01/18 13:26:14;;;;;;;2.03;1.07;;;4.20;99.90;;;;;;4935356;29;20213;-69
2023/01/18 13:28:42;;;;;;;3.87;1.97;;;4.20;99.90;;;;;;4938709;29;20204;-69
2023/01/18 13:31:08;;;;;;;5.07;2.00;;;4.20;99.90;;;;;;4940725;29;20438;-70
2023/01/18 13:33:38;;;;;;;3.33;1.50;;;4.20;99.90;;;;;;4939282;29;20225;-72
2023/01/18 13:36:07;;;;;;;3.37;1.70;;;4.20;99.90;;;;;;4943153;29;20205;-69
2023/01/18 13:38:38;;;;;;;8.37;1.97;;;4.30;99.90;;;;;;4942587;29;20260;-69
2023/01/18 13:41:09;;;;;;;2.43;1.50;;;4.20;99.90;;;;;;4935789;29;20232;-70
2023/01/18 13:44:01;;;;;;;4.13;1.83;;;4.20;99.90;;;;;;4939017;29;20213;-69
2023/01/18 13:46:29;;;;;;;3.13;1.60;;;4.30;99.90;;;;;;4939746;29;20228;-69
2023/01/18 13:48:57;;;;;;;3.03;1.63;;;4.50;99.90;;;;;;4941120;29;20564;-70
2023/01/18 13:51:50;;;;;;;3.10;1.73;;;4.50;99.90;;;;;;4937004;29;20229;-69
2023/01/18 13:54:59;;;;;;;6.23;1.77;;;4.40;99.90;;;;;;4940755;29;20243;-71
2023/01/18 13:57:26;;;;;;;2.70;1.47;;;4.40;99.90;;;;;;4937932;29;20268;-70
2023/01/18 13:59:53;;;;;;;4.83;1.80;;;4.50;99.90;;;;;;4943984;29;20216;-70
2023/01/18 14:02:25;;;;;;;4.37;1.67;;;4.60;99.90;;;;;;4937508;29;20209;-69
2023/01/18 14:05:02;;;;;;;3.10;1.70;;;4.60;99.90;;;;;;4937224;29;20272;-69
2023/01/18 14:07:35;;;;;;;6.83;1.90;;;4.50;99.90;;;;;;4939031;29;20566;-70
2023/01/18 14:10:06;;;;;;;3.27;1.87;;;4.50;99.90;;;;;;4937223;28;20212;-70
2023/01/18 14:12:46;;;;;;;2.27;1.47;;;4.60;99.90;;;;;;4939161;29;20300;-68
2023/01/18 14:15:24;;;;;;;5.97;1.73;;;4.70;99.90;;;;;;4938082;29;20236;-69
2023/01/18 14:17:51;;;;;;;3.47;1.70;;;4.80;99.90;;;;;;4936838;29;20695;-69
2023/01/18 14:20:42;;;;;;;4.43;2.00;;;4.80;99.90;;;;;;4938884;29;20226;-69
2023/01/18 14:23:23;;;;;;;3.70;1.77;;;4.70;99.90;;;;;;4936666;29;20208;-69
2023/01/18 14:25:59;;;;;;;2.90;2.03;;;4.70;99.90;;;;;;4935920;29;20212;-69
2023/01/18 14:28:31;;;;;;;3.97;1.70;;;4.60;99.90;;;;;;4935975;29;20671;-69
2023/01/18 14:31:00;;;;;;;3.33;1.53;;;4.60;99.90;;;;;;4939211;29;20225;-69
2023/01/18 14:33:31;;;;;;;5.17;2.00;;;4.60;99.90;;;;;;4936326;29;20217;-68
2023/01/18 14:36:00;;;;;;;2.20;1.47;;;4.50;99.90;;;;;;4935527;29;20217;-68
2023/01/18 14:38:29;;;;;;;3.50;1.43;;;4.50;99.90;;;;;;4936440;29;20204;-68
2023/01/18 14:41:03;;;;;;;4.57;1.80;;;4.40;99.90;;;;;;4935953;29;20235;-68
2023/01/18 14:43:32;;;;;;;3.47;1.67;;;4.30;99.90;;;;;;4935791;29;20292;-69
2023/01/18 14:46:02;;;;;;;2.80;1.70;;;4.30;99.90;;;;;;4943896;29;20218;-69
2023/01/18 14:48:33;;;;;;;2.83;1.93;;;4.30;99.90;;;;;;4942251;29;20213;-68
2023/01/18 14:51:01;;;;;;;8.27;1.90;;;4.30;99.90;;;;;;4936545;29;20620;-69
2023/01/18 14:53:30;;;;;;;7.20;2.00;;;4.30;99.90;;;;;;4938640;29;20307;-69
2023/01/18 14:56:16;;;;;;;5.20;1.97;;;4.30;99.90;;;;;;4948641;29;20266;-69
2023/01/18 14:58:50;;;;;;;4.13;1.33;;;4.30;99.90;;;;;;4945422;29;20204;-69
2023/01/18 15:01:28;;;;;;;6.20;1.97;;;4.30;99.90;;;;;;4937720;29;20319;-69
2023/01/18 15:03:57;;;;;;;6.10;1.87;;;4.30;99.90;;;;;;4939953;29;20636;-69
2023/01/18 15:06:33;;;;;;;5.33;1.63;;;4.30;99.90;;;;;;4935954;29;20215;-70
2023/01/18 15:09:01;;;;;;;4.00;1.70;;;4.30;99.90;;;;;;4935922;29;20208;-69
2023/01/18 15:11:29;;;;;;;3.93;1.20;;;4.20;99.90;;;;;;4935047;29;20221;-70
2023/01/18 15:13:59;;;;;;;5.57;1.83;;;4.20;99.90;;;;;;4943058;29;20259;-69
2023/01/18 15:16:29;;;;;;;6.97;1.60;;;4.20;99.90;;;;;;4937791;28;20208;-71
2023/01/18 15:18:57;;;;;;;4.13;1.63;;;4.20;99.90;;;;;;4936270;29;20625;-69
2023/01/18 15:21:27;;;;;;;2.67;1.43;;;4.10;99.90;;;;;;4937495;29;20593;-69
2023/01/18 15:24:00;;;;;;;4.70;1.47;;;4.10;99.90;;;;;;4936580;29;20213;-70
2023/01/18 15:26:39;;;;;;;3.53;1.63;;;4.10;99.90;;;;;;4938562;29;20200;-70
2023/01/18 15:29:12;;;;;;;3.47;1.60;;;4.10;99.90;;;;;;4936243;29;20240;-70
2023/01/18 15:31:50;;;;;;;5.83;1.33;;;4.10;99.90;;;;;;4941215;29;20704;-69
2023/01/18 15:34:20;;;;;;;2.63;1.20;;;4.10;99.90;;;;;;4954990;29;20714;-68
2023/01/18 15:36:49;;;;;;;2.23;1.13;;;4.00;99.90;;;;;;4953971;29;20240;-70
2023/01/18 15:39:16;;;;;;;5.00;1.40;;;3.90;99.90;;;;;;4954100;29;20208;-69
2023/01/18 15:41:44;;;;;;;8.13;1.93;;;4.00;99.90;;;;;;4954933;29;20227;-69
2023/01/18 15:44:47;;;;;;;2.90;1.57;;;4.00;99.90;;;;;;4955230;29;20215;-69
2023/01/18 15:47:16;;;;;;;10.57;1.80;;;4.10;99.90;;;;;;4955367;28;20214;-68
2023/01/18 15:49:44;;;;;;;9.07;1.40;;;4.00;99.90;;;;;;4954829;28;20208;-69
2023/01/18 15:52:11;;;;;;;4.27;1.37;;;4.00;99.90;;;;;;4955635;29;20208;-69
2023/01/18 15:54:39;;;;;;;4.37;1.63;;;3.90;99.90;;;;;;4955313;29;20235;-70
2023/01/18 15:57:19;;;;;;;5.53;1.67;;;3.80;99.90;;;;;;4955671;29;20302;-70
2023/01/18 15:59:47;;;;;;;4.33;1.63;;;3.80;99.90;;;;;;4954966;29;20560;-70
2023/01/18 16:02:18;;;;;;;5.10;1.77;;;3.80;99.90;;;;;;4954821;29;20204;-70
2023/01/18 16:04:45;;;;;;;3.30;1.80;;;3.80;99.90;;;;;;4955123;29;20204;-69
2023/01/18 16:07:37;;;;;;;4.40;1.90;;;3.80;99.90;;;;;;4955083;29;20215;-69
2023/01/18 16:10:26;;;;;;;3.77;1.80;;;3.80;99.90;;;;;;4955116;29;20278;-70
2023/01/18 16:12:55;;;;;;;6.63;2.03;;;3.80;99.90;;;;;;4955059;29;20204;-70
2023/01/18 16:15:25;;;;;;;5.17;2.40;;;3.70;99.90;;;;;;4954963;29;20296;-68
2023/01/18 16:17:55;;;;;;;5.60;2.20;;;3.70;99.90;;;;;;4954841;29;20239;-69
2023/01/18 16:20:22;;;;;;;8.47;2.20;;;3.60;99.90;;;;;;4954956;29;20261;-69
2023/01/18 16:22:54;;;;;;;7.53;2.50;;;3.50;99.90;;;;;;4955021;29;20214;-70
2023/01/18 16:25:23;;;;;;;4.50;2.13;;;3.50;99.90;;;;;;4954841;29;20212;-70
2023/01/18 16:27:52;;;;;;;4.87;2.50;;;3.50;99.90;;;;;;4954760;29;20226;-69
2023/01/18 16:30:23;;;;;;;5.17;2.10;;;3.40;99.90;;;;;;4954628;29;20243;-70
2023/01/18 16:32:50;;;;;;;6.43;2.33;;;3.40;99.90;;;;;;4954489;29;20212;-70
2023/01/18 16:35:19;;;;;;;3.87;2.13;;;3.40;99.90;;;;;;4954448;29;20242;-70
2023/01/18 16:37:46;;;;;;;4.70;2.27;;;3.40;99.90;;;;;;4954861;29;20567;-70
2023/01/18 16:40:18;;;;;;;4.60;2.47;;;3.40;99.90;;;;;;4954726;29;20235;-71
2023/01/18 16:43:04;;;;;;;4.30;2.30;;;3.40;99.90;;;;;;4954471;29;20211;-70
2023/01/18 16:45:35;;;;;;;5.30;3.07;;;3.30;99.90;;;;;;4954585;28;20212;-70
2023/01/18 16:48:02;;;;;;;9.13;2.97;;;3.30;99.90;;;;;;4954448;28;20678;-70
2023/01/18 16:50:29;;;;;;;4.17;2.87;;;3.30;99.90;;;;;;4954602;29;20223;-70
2023/01/18 16:52:56;;;;;;;7.23;3.33;;;3.20;99.90;;;;;;4955046;29;20216;-70
2023/01/18 16:55:23;;;;;;;7.40;3.30;;;3.20;99.90;;;;;;4954686;29;20240;-70
2023/01/18 16:57:50;;;;;;;6.17;2.97;;;3.10;99.90;;;;;;4938536;29;20201;-70
2023/01/18 17:00:19;;;;;;;5.67;2.77;;;3.10;99.90;;;;;;4937308;29;20230;-70
2023/01/18 17:02:47;;;;;;;5.67;3.23;;;3.10;99.90;;;;;;4940619;28;20204;-68
2023/01/18 17:05:16;;;;;;;7.47;3.10;;;3.20;99.90;;;;;;4939799;29;20543;-69
2023/01/18 17:07:43;;;;;;;10.20;3.10;;;3.20;99.90;;;;;;4946584;29;20207;-69
2023/01/18 17:10:19;;;;;;;5.07;2.83;;;3.20;99.90;;;;;;4941202;29;20719;-69
2023/01/18 17:12:46;;;;;;;6.43;2.33;;;3.20;99.90;;;;;;4942534;29;20204;-68
2023/01/18 17:15:14;;;;;;;5.60;2.90;;;3.10;99.90;;;;;;4940361;29;20242;-68
2023/01/18 17:17:42;;;;;;;6.97;3.10;;;3.10;99.90;;;;;;4938509;29;20255;-68
2023/01/18 17:20:17;;;;;;;8.00;2.47;;;3.10;99.90;;;;;;4940136;29;20284;-69
2023/01/18 17:22:44;;;;;;;7.97;2.80;;;3.00;99.90;;;;;;4938401;29;20683;-69
2023/01/18 17:25:11;;;;;;;6.13;2.90;;;3.00;99.90;;;;;;4941953;29;20215;-69
2023/01/18 17:27:38;;;;;;;4.67;3.10;;;2.90;99.90;;;;;;4940464;29;20575;-68
2023/01/18 17:30:06;;;;;;;6.07;2.73;;;3.00;99.90;;;;;;4942970;29;20764;-68
2023/01/18 17:32:33;;;;;;;8.13;2.70;;;3.00;99.90;;;;;;4938713;28;20209;-69
2023/01/18 17:34:59;;;;;;;5.03;2.17;;;2.90;99.90;;;;;;4938883;29;20241;-69
2023/01/18 17:37:28;;;;;;;10.63;4.30;;;3.00;99.90;;;;;;4941625;29;20295;-69
2023/01/18 17:39:54;;;;;;;10.80;5.53;;;2.90;99.90;;;;;;4940022;29;20204;-69
2023/01/18 17:42:21;;;;;;;6.70;3.70;;;2.90;99.90;;;;;;4940256;29;20664;-70
2023/01/18 17:44:48;;;;;;;8.33;3.73;;;2.90;99.90;;;;;;4940205;29;20549;-69
2023/01/18 17:47:15;;;;;;;10.27;4.27;;;2.90;99.90;;;;;;4937721;29;20208;-68
2023/01/18 17:49:42;;;;;;;12.27;4.37;;;2.90;99.90;;;;;;4937086;29;20240;-69
2023/01/18 17:52:09;;;;;;;11.13;3.43;;;2.90;99.90;;;;;;4937746;29;20236;-68
2023/01/18 17:54:37;;;;;;;6.80;3.67;;;2.80;99.90;;;;;;4938105;29;20673;-69
2023/01/18 17:57:04;;;;;;;10.03;3.50;;;2.80;99.90;;;;;;4936477;29;20219;-69
2023/01/18 17:59:30;;;;;;;4.83;2.73;;;2.90;99.90;;;;;;4937017;29;20248;-69
2023/01/18 18:01:57;;;;;;;5.83;2.60;;;2.80;99.90;;;;;;4938274;29;20709;-70
2023/01/18 18:04:24;;;;;;;5.73;3.07;;;2.80;99.90;;;;;;4937997;29;20215;-69
2023/01/18 18:06:57;;;;;;;5.00;2.37;;;2.80;99.90;;;;;;4938084;29;20226;-69
2023/01/18 18:09:24;;;;;;;8.57;3.20;;;2.70;99.90;;;;;;4938103;29;20212;-69
2023/01/18 18:11:52;;;;;;;8.53;3.70;;;2.70;99.90;;;;;;4937991;29;20237;-69
2023/01/18 18:14:19;;;;;;;8.97;2.83;;;2.70;99.90;;;;;;4937263;29;20209;-69
2023/01/18 18:16:46;;;;;;;4.60;2.73;;;2.70;99.90;;;;;;4937531;29;20726;-69
2023/01/18 18:19:13;;;;;;;6.83;2.80;;;2.60;99.90;;;;;;4937832;29;20219;-70
2023/01/18 18:21:40;;;;;;;5.13;2.47;;;2.70;99.90;;;;;;4937844;29;20228;-70
2023/01/18 18:24:07;;;;;;;8.53;3.40;;;2.60;99.90;;;;;;4937646;29;20220;-69
2023/01/18 18:26:34;;;;;;;9.37;2.87;;;2.70;99.90;;;;;;4937779;29;20236;-69
2023/01/18 18:29:02;;;;;;;4.93;2.67;;;2.60;99.90;;;;;;4937593;29;20213;-69
2023/01/18 18:31:29;;;;;;;6.87;2.87;;;2.50;99.90;;;;;;4937915;29;20588;-70
2023/01/18 18:33:56;;;;;;;5.03;2.60;;;2.50;99.90;;;;;;4937781;29;20223;-69
2023/01/18 18:36:26;;;;;;;5.83;2.63;;;2.50;99.90;;;;;;4937183;29;20240;-70
2023/01/18 18:38:53;;;;;;;2.30;1.63;;;2.50;99.90;;;;;;4937616;29;20208;-70
2023/01/18 18:41:19;;;;;;;4.67;2.30;;;2.50;99.90;;;;;;4937320;29;20233;-70
2023/01/18 18:43:46;;;;;;;4.27;2.53;;;2.50;99.90;;;;;;4937286;29;20537;-70
2023/01/18 18:46:14;;;;;;;6.17;3.10;;;2.50;99.90;;;;;;4937563;29;20201;-70
2023/01/18 18:48:41;;;;;;;6.17;2.47;;;2.40;99.90;;;;;;4937412;29;20571;-70
2023/01/18 18:51:08;;;;;;;5.77;3.07;;;2.40;99.90;;;;;;4937052;29;20236;-70
2023/01/18 18:53:37;;;;;;;6.33;3.23;;;2.40;99.90;;;;;;4937300;29;20287;-71
2023/01/18 18:56:05;;;;;;;6.23;2.87;;;2.40;99.90;;;;;;4937245;29;20325;-70
2023/01/18 18:58:32;;;;;;;6.27;3.33;;;2.40;99.90;;;;;;4937453;29;20252;-69
2023/01/18 19:00:59;;;;;;;5.13;2.57;;;2.40;99.90;;;;;;4937110;29;20225;-71
2023/01/18 19:03:27;;;;;;;6.27;3.93;;;2.40;99.90;;;;;;4937202;29;20209;-70
2023/01/18 19:05:54;;;;;;;5.23;2.77;;;2.40;99.90;;;;;;4936932;29;20217;-70
2023/01/18 19:08:21;;;;;;;5.73;2.53;;;2.40;99.90;;;;;;4936818;29;20209;-71
2023/01/18 19:10:48;;;;;;;5.07;3.03;;;2.50;99.90;;;;;;4936754;29;20244;-70
2023/01/18 19:13:15;;;;;;;5.63;3.13;;;2.40;99.90;;;;;;4936785;29;20219;-70
2023/01/18 19:15:45;;;;;;;6.07;3.27;;;2.40;99.90;;;;;;4937110;29;20328;-69
2023/01/18 19:18:12;;;;;;;7.03;2.80;;;2.50;99.90;;;;;;4936830;29;20588;-71
2023/01/18 19:20:40;;;;;;;6.90;3.50;;;2.60;99.90;;;;;;4936624;29;20239;-70
2023/01/18 19:23:07;;;;;;;6.67;3.03;;;2.60;99.90;;;;;;4936716;29;20209;-69
2023/01/18 19:25:33;;;;;;;7.97;3.27;;;2.60;99.90;;;;;;4935866;29;20209;-70
2023/01/18 19:28:00;;;;;;;5.43;2.47;;;2.60;99.90;;;;;;4936648;29;20213;-69
2023/01/18 19:30:27;;;;;;;5.93;3.17;;;2.60;99.90;;;;;;4936722;29;20229;-71
2023/01/18 19:32:55;;;;;;;7.57;3.00;;;2.60;99.90;;;;;;4936733;29;20252;-70
2023/01/18 19:35:22;;;;;;;6.07;3.80;;;2.60;99.90;;;;;;4936415;29;20703;-70
2023/01/18 19:37:50;;;;;;;5.67;3.07;;;2.70;99.90;;;;;;4936460;29;20212;-70
2023/01/18 19:40:17;;;;;;;8.87;3.30;;;2.70;99.90;;;;;;4936583;29;20232;-69
2023/01/18 19:42:45;;;;;;;7.10;3.50;;;2.70;99.90;;;;;;4936403;29;20209;-69
2023/01/18 19:45:12;;;;;;;6.70;4.23;;;2.80;99.90;;;;;;4936528;29;20208;-69
2023/01/18 19:47:40;;;;;;;9.90;3.73;;;2.80;99.90;;;;;;4934950;29;20211;-72
2023/01/18 19:50:07;;;;;;;6.93;3.93;;;2.80;99.90;;;;;;4931945;29;20323;-73
2023/01/18 19:52:34;;;;;;;5.07;3.50;;;2.80;99.90;;;;;;4934899;29;20667;-72
2023/01/18 19:55:04;;;;;;;6.27;3.63;;;2.80;99.90;;;;;;4934396;29;20217;-71
2023/01/18 19:57:30;;;;;;;11.93;3.63;;;2.90;99.90;;;;;;4934983;29;20244;-73
2023/01/18 19:59:57;;;;;;;6.30;3.47;;;2.90;99.90;;;;;;4934642;29;20579;-72
2023/01/18 20:02:24;;;;;;;6.67;4.17;;;2.80;99.90;;;;;;4935101;29;20579;-70
2023/01/18 20:04:52;;;;;;;10.87;3.57;;;2.90;99.90;;;;;;4935737;29;20204;-69
2023/01/18 20:07:19;;;;;;;7.77;4.00;;;2.90;99.90;;;;;;4935939;29;20307;-69
2023/01/18 20:09:46;;;;;;;8.20;3.90;;;2.90;99.90;;;;;;4935937;29;20209;-69
2023/01/18 20:12:14;;;;;;;6.67;3.80;;;2.80;99.90;;;;;;4935524;29;20298;-70
2023/01/18 20:14:43;;;;;;;6.87;3.53;;;2.70;99.90;;;;;;4935225;29;20672;-69
2023/01/18 20:17:13;;;;;;;8.73;4.50;;;2.60;99.90;;;;;;4935183;29;20247;-70
2023/01/18 20:19:40;;;;;;;7.93;3.73;;;2.50;99.90;;;;;;4935199;29;20205;-69
2023/01/18 20:22:06;;;;;;;5.90;3.00;;;2.30;99.90;;;;;;4935834;29;20583;-69
2023/01/18 20:24:33;;;;;;;6.30;3.90;;;2.20;99.90;;;;;;4935644;29;20216;-69
2023/01/18 20:27:03;;;;;;;6.70;3.70;;;2.20;99.90;;;;;;4935616;29;20215;-69
2023/01/18 20:29:31;;;;;;;11.43;4.47;;;2.10;99.90;;;;;;4935594;29;20213;-69
2023/01/18 20:31:59;;;;;;;5.63;3.77;;;2.10;99.90;;;;;;4935678;29;20239;-70
2023/01/18 20:34:26;;;;;;;7.43;3.73;;;2.10;99.90;;;;;;4935534;29;20224;-70
2023/01/18 20:36:52;;;;;;;7.67;4.03;;;2.10;99.90;;;;;;4939223;29;20236;-69
2023/01/18 20:39:19;;;;;;;6.17;3.53;;;2.10;99.90;;;;;;4942306;29;20219;-69
2023/01/18 20:41:47;;;;;;;5.27;3.57;;;2.10;99.90;;;;;;4941534;29;20235;-69
2023/01/18 20:44:14;;;;;;;5.60;3.60;;;2.00;99.90;;;;;;4941741;29;20212;-70
2023/01/18 20:46:42;;;;;;;8.23;3.83;;;2.00;99.90;;;;;;4941751;29;20209;-69
2023/01/18 20:49:09;;;;;;;4.73;3.83;;;2.00;99.90;;;;;;4941962;29;20204;-69
2023/01/18 20:51:39;;;;;;;10.17;4.70;;;1.90;99.90;;;;;;4941513;29;20600;-70
2023/01/18 20:54:06;;;;;;;7.53;3.97;;;1.90;99.90;;;;;;4941478;29;20648;-70
2023/01/18 20:56:32;;;;;;;8.43;4.20;;;1.90;99.90;;;;;;4941545;29;20239;-70
2023/01/18 20:58:59;;;;;;;7.07;3.53;;;1.90;99.90;;;;;;4941329;29;20219;-69
2023/01/18 21:01:30;;;;;;;6.63;3.97;;;1.90;99.90;;;;;;4941760;29;20239;-69
2023/01/18 21:03:59;;;;;;;5.07;3.27;;;1.90;99.90;;;;;;4941727;29;20212;-69
2023/01/18 21:06:26;;;;;;;7.27;4.40;;;1.90;99.90;;;;;;4941760;29;20208;-69
2023/01/18 21:08:53;;;;;;;8.40;4.17;;;2.00;99.90;;;;;;4941583;29;20299;-69
2023/01/18 21:11:21;;;;;;;8.67;3.90;;;2.00;99.90;;;;;;4941350;29;20239;-70
2023/01/18 21:13:48;;;;;;;6.97;4.20;;;2.10;99.90;;;;;;4941924;29;20219;-69
2023/01/18 21:16:15;;;;;;;9.87;4.27;;;2.10;99.90;;;;;;4941810;29;20291;-69
2023/01/18 21:18:42;;;;;;;10.97;4.80;;;2.20;99.90;;;;;;4941587;29;20224;-68
2023/01/18 21:21:11;;;;;;;5.60;3.77;;;2.20;99.90;;;;;;4941162;29;20592;-69
2023/01/18 21:23:38;;;;;;;8.50;4.23;;;2.20;99.90;;;;;;4941377;29;20280;-70
2023/01/18 21:26:06;;;;;;;8.37;4.33;;;2.20;99.90;;;;;;4941615;29;20232;-69
2023/01/18 21:28:33;;;;;;;6.30;4.60;;;2.20;99.90;;;;;;4942079;29;20211;-69
2023/01/18 21:31:00;;;;;;;12.90;5.23;;;2.30;99.90;;;;;;4941439;29;20225;-70
2023/01/18 21:33:27;;;;;;;7.63;3.63;;;2.30;99.90;;;;;;4941412;29;20216;-70
2023/01/18 21:35:54;;;;;;;12.80;3.90;;;2.20;99.90;;;;;;4940994;29;20220;-69
2023/01/18 21:38:24;;;;;;;7.47;4.07;;;2.20;99.90;;;;;;4941287;29;20256;-70
2023/01/18 21:40:51;;;;;;;7.23;4.30;;;2.30;99.90;;;;;;4941167;29;20316;-70
2023/01/18 21:46:05;;;;;;;8.80;5.10;;;2.20;99.90;;;;;;4941225;29;20211;-70
2023/01/18 21:48:32;;;;;;;9.33;4.43;;;2.20;99.90;;;;;;4938899;29;20235;-70
2023/01/18 21:56:30;;;;;;;9.60;5.07;;;2.40;99.90;;;;;;4938229;29;20243;-70